createdAt,value
2017-02-08T00:00:57.373Z,66.26
2017-02-08T00:01:57.399Z,66.64
2017-02-08T00:02:57.406Z,66.93
2017-02-08T00:03:57.418Z,67.02
2017-02-08T00:04:57.430Z,66.83
2017-02-08T00:05:57.441Z,66.54
2017-02-08T00:06:57.047Z,66.26
2017-02-08T00:07:57.458Z,66.64
2017-02-08T00:08:57.466Z,66.54
2017-02-08T00:09:57.481Z,66.45
2017-02-08T00:10:57.495Z,66.54
2017-02-08T00:11:57.508Z,66.64
2017-02-08T00:12:57.508Z,67.58
2017-02-08T00:13:57.520Z,66.74
2017-02-08T00:14:57.254Z,66.93
2017-02-08T00:15:57.692Z,66.83
2017-02-08T00:16:57.741Z,66.83
2017-02-08T00:17:57.649Z,67.02
2017-02-08T00:18:57.688Z,66.26
2017-02-08T00:19:57.677Z,66.45
2017-02-08T00:20:57.678Z,66.74
2017-02-08T00:21:57.680Z,67.02
2017-02-08T00:22:57.690Z,66.64
2017-02-08T00:23:57.726Z,65.97
2017-02-08T00:24:57.740Z,66.16
2017-02-08T00:25:57.749Z,66.35
2017-02-08T00:26:57.737Z,66.26
2017-02-08T00:27:57.772Z,66.45
2017-02-08T00:28:57.883Z,66.74
2017-02-08T00:29:57.695Z,66.07
2017-02-08T00:30:57.715Z,66.45
2017-02-08T00:31:57.722Z,66.64
2017-02-08T00:32:57.737Z,66.45
2017-02-08T00:33:57.792Z,66.83
2017-02-08T00:34:57.759Z,66.45
2017-02-08T00:35:57.780Z,66.35
2017-02-08T00:36:57.777Z,66.93
2017-02-08T00:37:57.790Z,66.54
2017-02-08T00:38:57.800Z,66.64
2017-02-08T00:39:57.806Z,66.93
2017-02-08T00:40:57.816Z,66.64
2017-02-08T00:41:57.837Z,66.64
2017-02-08T00:42:57.844Z,67.02
2017-02-08T00:43:57.854Z,67.3
2017-02-08T00:44:57.861Z,67.3
2017-02-08T00:45:57.880Z,67.49
2017-02-08T00:46:57.893Z,67.4
2017-02-08T00:47:57.896Z,66.93
2017-02-08T00:48:57.910Z,67.3
2017-02-08T00:49:57.918Z,67.4
2017-02-08T00:50:57.928Z,67.11
2017-02-08T00:51:57.940Z,67.11
2017-02-08T00:52:57.946Z,67.11
2017-02-08T00:53:57.951Z,67.4
2017-02-08T00:54:57.964Z,67.3
2017-02-08T00:55:57.977Z,67.11
2017-02-08T00:56:57.985Z,67.4
2017-02-08T00:57:58.007Z,67.11
2017-02-08T00:58:58.016Z,67.11
2017-02-08T00:59:58.022Z,67.4
2017-02-08T01:00:58.039Z,67.02
2017-02-08T01:01:58.049Z,67.02
2017-02-08T01:02:58.048Z,66.83
2017-02-08T01:03:58.064Z,66.54
2017-02-08T01:04:58.078Z,66.93
2017-02-08T01:05:58.086Z,66.83
2017-02-08T01:06:58.099Z,66.26
2017-02-08T01:07:58.120Z,66.45
2017-02-08T01:08:58.125Z,66.64
2017-02-08T01:09:58.124Z,66.35
2017-02-08T01:10:58.147Z,66.35
2017-02-08T01:11:58.155Z,67.21
2017-02-08T01:12:58.158Z,66.26
2017-02-08T01:13:58.171Z,66.83
2017-02-08T01:14:58.189Z,66.74
2017-02-08T01:15:58.200Z,66.74
2017-02-08T01:16:58.201Z,66.26
2017-02-08T01:17:58.213Z,66.93
2017-02-08T01:18:58.225Z,66.45
2017-02-08T01:19:58.233Z,66.93
2017-02-08T01:20:58.244Z,66.54
2017-02-08T01:21:58.265Z,66.64
2017-02-08T01:22:58.267Z,66.45
2017-02-08T01:23:58.276Z,66.64
2017-02-08T01:24:58.295Z,66.45
2017-02-08T01:25:58.295Z,66.54
2017-02-08T01:26:58.320Z,66.74
2017-02-08T01:27:58.328Z,66.54
2017-02-08T01:28:58.337Z,66.64
2017-02-08T01:29:58.342Z,66.54
2017-02-08T01:30:58.359Z,66.45
2017-02-08T01:31:58.365Z,66.45
2017-02-08T01:32:58.374Z,66.26
2017-02-08T01:33:58.387Z,66.35
2017-02-08T01:34:58.392Z,66.64
2017-02-08T01:35:58.405Z,67.21
2017-02-08T01:36:58.417Z,66.64
2017-02-08T01:37:58.436Z,66.93
2017-02-08T01:38:58.447Z,66.74
2017-02-08T01:39:58.454Z,66.74
2017-02-08T01:40:58.458Z,66.93
2017-02-08T01:41:58.477Z,67.11
2017-02-08T01:42:58.081Z,66.54
2017-02-08T01:43:58.497Z,66.83
2017-02-08T01:44:58.503Z,66.93
2017-02-08T01:45:58.513Z,66.35
2017-02-08T01:46:58.524Z,66.35
2017-02-08T01:47:58.535Z,66.54
2017-02-08T01:48:58.548Z,66.93
2017-02-08T01:49:58.557Z,67.02
2017-02-08T01:50:58.566Z,66.54
2017-02-08T01:51:58.576Z,66.26
2017-02-08T01:52:58.190Z,66.07
2017-02-08T01:53:58.597Z,66.93
2017-02-08T01:54:58.608Z,66.26
2017-02-08T01:55:58.619Z,66.07
2017-02-08T01:56:58.628Z,66.26
2017-02-08T01:57:58.640Z,66.64
2017-02-08T01:58:58.650Z,66.45
2017-02-08T01:59:58.667Z,66.54
2017-02-08T02:00:58.672Z,66.26
2017-02-08T02:01:58.684Z,66.45
2017-02-08T02:02:58.695Z,65.97
2017-02-08T02:03:58.701Z,66.35
2017-02-08T02:04:58.716Z,66.16
2017-02-08T02:05:58.725Z,66.07
2017-02-08T02:06:58.738Z,66.16
2017-02-08T02:07:58.750Z,66.35
2017-02-08T02:08:58.764Z,66.26
2017-02-08T02:09:58.771Z,66.16
2017-02-08T02:10:58.780Z,66.16
2017-02-08T02:11:58.796Z,66.26
2017-02-08T02:12:58.800Z,66.45
2017-02-08T02:13:58.813Z,65.88
2017-02-08T02:14:58.831Z,66.45
2017-02-08T02:15:58.833Z,65.88
2017-02-08T02:16:58.844Z,66.35
2017-02-08T02:17:58.859Z,66.45
2017-02-08T02:18:58.868Z,66.07
2017-02-08T02:19:58.878Z,66.07
2017-02-08T02:20:58.888Z,66.54
2017-02-08T02:21:58.907Z,66.26
2017-02-08T02:22:58.911Z,66.26
2017-02-08T02:23:58.923Z,66.35
2017-02-08T02:24:58.931Z,66.26
2017-02-08T02:25:58.942Z,66.07
2017-02-08T02:26:58.960Z,65.97
2017-02-08T02:27:58.961Z,66.16
2017-02-08T02:28:58.974Z,66.45
2017-02-08T02:29:58.985Z,65.69
2017-02-08T02:30:58.595Z,65.5
2017-02-08T02:31:59.005Z,65.31
2017-02-08T02:32:59.017Z,65.69
2017-02-08T02:33:59.025Z,65.41
2017-02-08T02:34:59.060Z,65.59
2017-02-08T02:35:59.050Z,65.5
2017-02-08T02:36:59.059Z,65.5
2017-02-08T02:37:59.068Z,65.31
2017-02-08T02:38:59.081Z,65.59
2017-02-08T02:39:59.092Z,65.31
2017-02-08T02:40:59.099Z,65.31
2017-02-08T02:41:59.110Z,65.12
2017-02-08T02:42:59.120Z,64.84
2017-02-08T02:43:59.132Z,65.03
2017-02-08T02:44:59.144Z,65.22
2017-02-08T02:45:59.152Z,65.31
2017-02-08T02:46:59.167Z,65.59
2017-02-08T02:47:59.174Z,65.31
2017-02-08T02:48:59.184Z,64.84
2017-02-08T02:49:59.196Z,65.12
2017-02-08T02:50:59.212Z,65.56
2017-02-08T02:51:59.216Z,65.5
2017-02-08T02:52:59.230Z,65.47
2017-02-08T02:53:59.236Z,65.12
2017-02-08T02:54:59.290Z,65.31
2017-02-08T02:55:59.266Z,65.78
2017-02-08T02:56:59.277Z,65.78
2017-02-08T02:57:59.277Z,65.97
2017-02-08T02:58:59.290Z,66.26
2017-02-08T02:59:59.301Z,66.35
2017-02-08T03:00:59.313Z,66.35
2017-02-08T03:01:59.325Z,65.69
2017-02-08T03:02:59.331Z,65.97
2017-02-08T03:03:59.344Z,65.88
2017-02-08T03:04:59.353Z,66.16
2017-02-08T03:05:59.361Z,66.16
2017-02-08T03:06:59.418Z,66.35
2017-02-08T03:07:59.383Z,65.88
2017-02-08T03:08:59.399Z,65.41
2017-02-08T03:09:59.411Z,65.78
2017-02-08T03:10:59.425Z,65.5
2017-02-08T03:11:59.423Z,65.31
2017-02-08T03:12:59.435Z,65.22
2017-02-08T03:13:59.448Z,64.65
2017-02-08T03:14:59.458Z,65
2017-02-08T03:15:59.474Z,65.22
2017-02-08T03:16:59.479Z,64.74
2017-02-08T03:17:59.493Z,65.22
2017-02-08T03:18:59.507Z,65.28
2017-02-08T03:19:59.515Z,64.84
2017-02-08T03:20:59.538Z,65.37
2017-02-08T03:21:59.534Z,65.19
2017-02-08T03:22:59.545Z,64.84
2017-02-08T03:23:59.556Z,65.66
2017-02-08T03:24:59.570Z,65.31
2017-02-08T03:25:59.578Z,65.31
2017-02-08T03:26:59.586Z,65.22
2017-02-08T03:27:59.596Z,65.37
2017-02-08T03:28:59.607Z,65.31
2017-02-08T03:29:59.617Z,65.09
2017-02-08T03:30:59.628Z,65.31
2017-02-08T03:31:59.639Z,64.61
2017-02-08T03:32:59.648Z,64.81
2017-02-08T03:33:59.660Z,64.33
2017-02-08T03:34:59.277Z,64.14
2017-02-08T03:35:59.688Z,64.23
2017-02-08T03:36:59.695Z,64.61
2017-02-08T03:37:59.701Z,64.9
2017-02-08T03:38:59.714Z,64.71
2017-02-08T03:39:59.725Z,64.61
2017-02-08T03:40:59.739Z,65.28
2017-02-08T03:41:59.743Z,65.41
2017-02-08T03:42:59.753Z,65.09
2017-02-08T03:43:59.764Z,65.28
2017-02-08T03:44:59.778Z,65.28
2017-02-08T03:45:59.786Z,65
2017-02-08T03:46:59.796Z,64.42
2017-02-08T03:47:59.809Z,63.67
2017-02-08T03:48:59.822Z,63.57
2017-02-08T03:49:59.824Z,63.57
2017-02-08T03:50:59.836Z,63.29
2017-02-08T03:51:59.847Z,64.04
2017-02-08T03:52:59.859Z,64.23
2017-02-08T03:53:59.871Z,64.23
2017-02-08T03:54:59.880Z,63.76
2017-02-08T03:55:59.890Z,63.76
2017-02-08T03:56:59.909Z,64.14
2017-02-08T03:57:59.910Z,64.33
2017-02-08T03:58:59.918Z,63.95
2017-02-08T03:59:59.930Z,64.9
2017-02-08T04:00:59.948Z,65.09
2017-02-08T04:01:59.952Z,63.95
2017-02-08T04:02:59.968Z,64.33
2017-02-08T04:03:59.973Z,63.57
2017-02-08T04:04:59.982Z,64.33
2017-02-08T04:05:59.993Z,63.76
2017-02-08T04:07:00.003Z,63.67
2017-02-08T04:08:00.018Z,63.85
2017-02-08T04:09:00.028Z,63.67
2017-02-08T04:10:00.036Z,63.76
2017-02-08T04:11:00.047Z,63.39
2017-02-08T04:12:00.058Z,64.33
2017-02-08T04:13:00.066Z,64.42
2017-02-08T04:14:00.075Z,63.85
2017-02-08T04:15:00.291Z,64.33
2017-02-08T04:16:00.290Z,63.95
2017-02-08T04:17:00.197Z,63.76
2017-02-08T04:18:00.204Z,63.39
2017-02-08T04:19:00.214Z,64.14
2017-02-08T04:20:00.220Z,64.04
2017-02-08T04:20:59.970Z,63.85
2017-02-08T04:22:00.362Z,63.95
2017-02-08T04:23:00.370Z,63.67
2017-02-08T04:24:00.287Z,64.23
2017-02-08T04:25:00.284Z,63.57
2017-02-08T04:26:00.205Z,64.14
2017-02-08T04:27:00.222Z,63.95
2017-02-08T04:28:00.221Z,64.23
2017-02-08T04:29:00.241Z,64.33
2017-02-08T04:30:00.244Z,64.14
2017-02-08T04:31:00.260Z,64.33
2017-02-08T04:32:00.275Z,64.42
2017-02-08T04:33:00.276Z,63.85
2017-02-08T04:34:00.281Z,63.76
2017-02-08T04:35:00.294Z,64.04
2017-02-08T04:36:00.306Z,63.95
2017-02-08T04:37:00.314Z,64.04
2017-02-08T04:38:00.328Z,63.76
2017-02-08T04:39:00.337Z,63.57
2017-02-08T04:40:00.343Z,63.76
2017-02-08T04:41:00.355Z,64.04
2017-02-08T04:42:00.364Z,63.76
2017-02-08T04:43:00.376Z,63.67
2017-02-08T04:44:00.384Z,63.48
2017-02-08T04:45:00.401Z,63.85
2017-02-08T04:46:00.010Z,64.04
2017-02-08T04:47:00.422Z,63.85
2017-02-08T04:48:00.433Z,64.23
2017-02-08T04:49:00.436Z,63.85
2017-02-08T04:50:00.451Z,63.76
2017-02-08T04:51:00.458Z,63.95
2017-02-08T04:52:00.466Z,63.85
2017-02-08T04:53:00.484Z,63.95
2017-02-08T04:54:00.515Z,63.85
2017-02-08T04:55:00.498Z,64.14
2017-02-08T04:56:00.513Z,63.85
2017-02-08T04:57:00.519Z,64.42
2017-02-08T04:58:00.540Z,63.76
2017-02-08T04:59:00.537Z,63.76
2017-02-08T05:00:00.548Z,63.76
2017-02-08T05:01:00.564Z,63.67
2017-02-08T05:02:00.576Z,63.48
2017-02-08T05:03:00.583Z,63.1
2017-02-08T05:04:00.600Z,63.57
2017-02-08T05:05:00.600Z,63.67
2017-02-08T05:06:00.618Z,63.76
2017-02-08T05:07:00.623Z,63.48
2017-02-08T05:08:00.630Z,63.57
2017-02-08T05:09:00.642Z,63.85
2017-02-08T05:10:00.656Z,63.76
2017-02-08T05:11:00.718Z,63.85
2017-02-08T05:12:00.673Z,63.57
2017-02-08T05:13:00.682Z,63.48
2017-02-08T05:14:00.701Z,63.76
2017-02-08T05:15:00.744Z,64.04
2017-02-08T05:16:00.715Z,63.39
2017-02-08T05:17:00.722Z,63.85
2017-02-08T05:18:00.735Z,64.14
2017-02-08T05:19:00.741Z,64.14
2017-02-08T05:20:00.762Z,63.95
2017-02-08T05:21:00.770Z,63.39
2017-02-08T05:22:00.771Z,63.67
2017-02-08T05:23:00.799Z,63.2
2017-02-08T05:24:00.797Z,63.48
2017-02-08T05:25:00.810Z,63.39
2017-02-08T05:26:00.851Z,63.2
2017-02-08T05:27:00.823Z,63.39
2017-02-08T05:28:00.888Z,63.48
2017-02-08T05:29:00.443Z,63.39
2017-02-08T05:30:00.855Z,63.48
2017-02-08T05:31:00.463Z,63.29
2017-02-08T05:32:00.886Z,63.1
2017-02-08T05:33:00.882Z,63.29
2017-02-08T05:34:00.895Z,63.67
2017-02-08T05:35:00.908Z,63.39
2017-02-08T05:36:00.912Z,63.2
2017-02-08T05:37:00.925Z,63.39
2017-02-08T05:38:00.939Z,63.57
2017-02-08T05:39:00.950Z,63.85
2017-02-08T05:40:00.962Z,64.23
2017-02-08T05:41:00.965Z,64.71
2017-02-08T05:42:00.985Z,64.71
2017-02-08T05:43:00.586Z,64.33
2017-02-08T05:44:01.001Z,63.76
2017-02-08T05:45:01.008Z,63.76
2017-02-08T05:46:01.016Z,63.76
2017-02-08T05:47:01.026Z,63.57
2017-02-08T05:48:01.036Z,63.76
2017-02-08T05:49:01.048Z,63.48
2017-02-08T05:50:01.064Z,63.29
2017-02-08T05:51:01.067Z,63.2
2017-02-08T05:52:01.084Z,62.72
2017-02-08T05:53:01.085Z,62.62
2017-02-08T05:54:01.095Z,63.29
2017-02-08T05:55:01.105Z,62.82
2017-02-08T05:56:01.116Z,62.72
2017-02-08T05:57:01.127Z,63.29
2017-02-08T05:58:01.134Z,63.01
2017-02-08T05:59:01.144Z,63.39
2017-02-08T06:00:01.162Z,63.2
2017-02-08T06:01:01.175Z,63.39
2017-02-08T06:02:01.176Z,63.48
2017-02-08T06:03:01.189Z,63.76
2017-02-08T06:04:01.196Z,64.14
2017-02-08T06:05:01.206Z,64.04
2017-02-08T06:06:01.219Z,63.67
2017-02-08T06:07:01.235Z,64.23
2017-02-08T06:08:01.240Z,63.76
2017-02-08T06:09:01.247Z,63.67
2017-02-08T06:10:01.268Z,63.57
2017-02-08T06:11:01.266Z,63.76
2017-02-08T06:12:01.284Z,63.85
2017-02-08T06:13:01.291Z,64.14
2017-02-08T06:14:01.301Z,64.04
2017-02-08T06:15:01.313Z,63.95
2017-02-08T06:16:01.316Z,63.76
2017-02-08T06:17:01.329Z,63.76
2017-02-08T06:18:01.339Z,63.85
2017-02-08T06:19:01.347Z,63.39
2017-02-08T06:20:01.366Z,63.2
2017-02-08T06:21:01.368Z,63.29
2017-02-08T06:22:01.377Z,63.57
2017-02-08T06:23:01.388Z,63.67
2017-02-08T06:24:01.404Z,63.48
2017-02-08T06:25:01.502Z,64.23
2017-02-08T06:26:01.519Z,63.48
2017-02-08T06:27:01.520Z,63.39
2017-02-08T06:28:01.441Z,63.2
2017-02-08T06:29:01.565Z,63.1
2017-02-08T06:30:01.506Z,63.39
2017-02-08T06:31:01.512Z,63.48
2017-02-08T06:32:01.519Z,63.39
2017-02-08T06:33:01.529Z,63.48
2017-02-08T06:34:01.105Z,63.2
2017-02-08T06:35:01.536Z,63.1
2017-02-08T06:36:01.553Z,63.1
2017-02-08T06:37:01.554Z,63.2
2017-02-08T06:38:01.562Z,63.29
2017-02-08T06:39:01.643Z,63.57
2017-02-08T06:40:01.570Z,63.2
2017-02-08T06:41:01.577Z,63.48
2017-02-08T06:42:01.627Z,63.95
2017-02-08T06:43:01.636Z,63.39
2017-02-08T06:44:01.633Z,63.48
2017-02-08T06:45:01.644Z,63.29
2017-02-08T06:46:01.652Z,63.48
2017-02-08T06:47:01.661Z,63.48
2017-02-08T06:48:01.669Z,63.76
2017-02-08T06:49:01.654Z,63.95
2017-02-08T06:50:01.661Z,63.76
2017-02-08T06:51:01.672Z,64.04
2017-02-08T06:52:01.679Z,64.42
2017-02-08T06:53:01.732Z,64.33
2017-02-08T06:54:01.703Z,64.52
2017-02-08T06:55:01.711Z,64.33
2017-02-08T06:56:01.720Z,64.23
2017-02-08T06:57:01.729Z,64.23
2017-02-08T06:58:01.739Z,63.48
2017-02-08T06:59:01.748Z,63.29
2017-02-08T07:00:01.758Z,63.29
2017-02-08T07:01:01.769Z,63.2
2017-02-08T07:02:01.778Z,63.48
2017-02-08T07:03:01.797Z,63.2
2017-02-08T07:04:01.824Z,63.1
2017-02-08T07:05:01.809Z,63.39
2017-02-08T07:06:01.820Z,63.2
2017-02-08T07:07:01.828Z,63.48
2017-02-08T07:08:01.836Z,63.2
2017-02-08T07:09:01.937Z,62.62
2017-02-08T07:10:02.069Z,62.72
2017-02-08T07:11:02.065Z,62.53
2017-02-08T07:12:01.876Z,62.82
2017-02-08T07:13:01.888Z,63.1
2017-02-08T07:14:01.898Z,63.39
2017-02-08T07:15:01.906Z,63.39
2017-02-08T07:16:01.922Z,62.62
2017-02-08T07:17:01.925Z,62.62
2017-02-08T07:18:01.938Z,63.01
2017-02-08T07:19:01.948Z,63.48
2017-02-08T07:20:02.160Z,63.29
2017-02-08T07:21:01.964Z,63.48
2017-02-08T07:22:01.986Z,63.39
2017-02-08T07:23:01.984Z,63.48
2017-02-08T07:24:01.994Z,63.2
2017-02-08T07:25:02.006Z,63.39
2017-02-08T07:26:02.017Z,63.85
2017-02-08T07:27:02.026Z,63.76
2017-02-08T07:28:01.636Z,63.29
2017-02-08T07:29:02.049Z,63.67
2017-02-08T07:30:02.062Z,63.1
2017-02-08T07:31:02.068Z,63.57
2017-02-08T07:32:02.076Z,63.67
2017-02-08T07:33:02.095Z,63.67
2017-02-08T07:34:02.099Z,63.57
2017-02-08T07:35:02.105Z,63.29
2017-02-08T07:36:02.122Z,63.2
2017-02-08T07:37:02.127Z,63.67
2017-02-08T07:38:02.137Z,64.04
2017-02-08T07:39:02.147Z,64.04
2017-02-08T07:40:02.155Z,65.09
2017-02-08T07:41:02.166Z,64.71
2017-02-08T07:42:02.176Z,65.28
2017-02-08T07:43:02.296Z,65.09
2017-02-08T07:44:02.195Z,65.28
2017-02-08T07:45:02.210Z,64.81
2017-02-08T07:46:02.215Z,65.28
2017-02-08T07:47:02.226Z,65.37
2017-02-08T07:48:02.233Z,65.09
2017-02-08T07:49:02.253Z,65.19
2017-02-08T07:50:02.254Z,65.28
2017-02-08T07:51:02.267Z,64.81
2017-02-08T07:52:02.275Z,65.28
2017-02-08T07:53:02.285Z,65
2017-02-08T07:54:02.295Z,65.56
2017-02-08T07:55:02.313Z,65.66
2017-02-08T07:56:02.317Z,64.81
2017-02-08T07:57:02.326Z,64.9
2017-02-08T07:58:02.336Z,64.61
2017-02-08T07:59:02.344Z,64.81
2017-02-08T08:00:02.354Z,64.81
2017-02-08T08:01:02.367Z,65
2017-02-08T08:02:02.378Z,64.61
2017-02-08T08:03:02.388Z,64.14
2017-02-08T08:04:02.398Z,63.29
2017-02-08T08:05:02.448Z,63.67
2017-02-08T08:06:02.414Z,63.48
2017-02-08T08:07:02.428Z,63.29
2017-02-08T08:08:02.438Z,63.29
2017-02-08T08:09:02.449Z,63.67
2017-02-08T08:10:02.457Z,63.39
2017-02-08T08:11:02.469Z,63.1
2017-02-08T08:12:02.475Z,63.1
2017-02-08T08:13:02.486Z,63.2
2017-02-08T08:14:02.496Z,63.01
2017-02-08T08:15:02.511Z,63.01
2017-02-08T08:16:02.517Z,63.39
2017-02-08T08:17:02.529Z,63.1
2017-02-08T08:18:02.536Z,63.48
2017-02-08T08:19:02.551Z,63.57
2017-02-08T08:20:02.558Z,63.39
2017-02-08T08:21:02.568Z,63.67
2017-02-08T08:22:02.580Z,62.82
2017-02-08T08:23:02.587Z,62.24
2017-02-08T08:24:02.597Z,62.15
2017-02-08T08:25:02.609Z,61.58
2017-02-08T08:26:02.628Z,61.68
2017-02-08T08:27:02.636Z,62.34
2017-02-08T08:28:02.641Z,62.24
2017-02-08T08:29:02.649Z,62.05
2017-02-08T08:30:02.666Z,62.53
2017-02-08T08:31:02.668Z,62.82
2017-02-08T08:32:02.682Z,62.91
2017-02-08T08:33:02.689Z,62.72
2017-02-08T08:34:02.703Z,62.82
2017-02-08T08:35:02.707Z,62.15
2017-02-08T08:36:02.726Z,62.34
2017-02-08T08:37:02.729Z,61.77
2017-02-08T08:38:02.740Z,62.15
2017-02-08T08:39:02.749Z,62.34
2017-02-08T08:40:02.757Z,62.43
2017-02-08T08:41:02.773Z,62.53
2017-02-08T08:42:02.789Z,62.72
2017-02-08T08:43:02.790Z,62.62
2017-02-08T08:44:02.406Z,62.43
2017-02-08T08:45:02.818Z,62.43
2017-02-08T08:46:02.820Z,62.47
2017-02-08T08:47:02.831Z,61.96
2017-02-08T08:48:02.841Z,61.99
2017-02-08T08:49:02.854Z,62.18
2017-02-08T08:50:02.469Z,61.96
2017-02-08T08:51:02.872Z,61.71
2017-02-08T08:52:02.529Z,62.18
2017-02-08T08:53:02.901Z,62.05
2017-02-08T08:54:02.906Z,61.9
2017-02-08T08:55:02.999Z,62.28
2017-02-08T08:56:02.924Z,62.24
2017-02-08T08:57:03.164Z,62.37
2017-02-08T08:58:02.710Z,61.99
2017-02-08T08:59:03.044Z,62.18
2017-02-08T09:00:02.667Z,62.37
2017-02-08T09:01:03.063Z,62.24
2017-02-08T09:02:03.136Z,62.18
2017-02-08T09:03:03.039Z,61.9
2017-02-08T09:04:03.051Z,62.28
2017-02-08T09:05:03.057Z,62.28
2017-02-08T09:06:03.068Z,62.37
2017-02-08T09:07:03.091Z,62.28
2017-02-08T09:08:03.077Z,62.56
2017-02-08T09:09:03.065Z,62.75
2017-02-08T09:10:02.706Z,62.66
2017-02-08T09:11:03.083Z,62.85
2017-02-08T09:12:03.087Z,63.42
2017-02-08T09:13:03.098Z,63.13
2017-02-08T09:14:03.121Z,63.32
2017-02-08T09:15:03.122Z,63.42
2017-02-08T09:16:03.135Z,63.04
2017-02-08T09:17:03.152Z,62.08
2017-02-08T09:18:03.162Z,61.99
2017-02-08T09:19:03.159Z,62.08
2017-02-08T09:20:03.174Z,62.66
2017-02-08T09:21:03.180Z,62.75
2017-02-08T09:22:02.801Z,63.51
2017-02-08T09:23:03.285Z,63.13
2017-02-08T09:24:03.263Z,63.51
2017-02-08T09:25:03.331Z,63.51
2017-02-08T09:26:02.853Z,63.32
2017-02-08T09:27:03.243Z,63.42
2017-02-08T09:28:03.270Z,62.85
2017-02-08T09:29:03.267Z,62.37
2017-02-08T09:30:03.277Z,62.47
2017-02-08T09:31:03.286Z,61.99
2017-02-08T09:32:03.305Z,62.37
2017-02-08T09:33:03.310Z,62.28
2017-02-08T09:34:03.324Z,62.18
2017-02-08T09:35:03.412Z,62.37
2017-02-08T09:36:03.411Z,62.28
2017-02-08T09:37:03.421Z,62.47
2017-02-08T09:38:02.972Z,62.47
2017-02-08T09:39:03.465Z,62.75
2017-02-08T09:40:03.006Z,62.85
2017-02-08T09:41:03.390Z,62.56
2017-02-08T09:42:03.025Z,62.75
2017-02-08T09:43:03.414Z,62.85
2017-02-08T09:44:03.437Z,63.04
2017-02-08T09:45:03.462Z,62.47
2017-02-08T09:46:03.470Z,62.37
2017-02-08T09:47:03.456Z,61.99
2017-02-08T09:48:03.108Z,62.28
2017-02-08T09:49:03.478Z,62.28
2017-02-08T09:50:03.515Z,62.66
2017-02-08T09:51:03.546Z,63.04
2017-02-08T09:52:03.116Z,62.94
2017-02-08T09:53:03.520Z,62.47
2017-02-08T09:54:03.545Z,62.94
2017-02-08T09:55:03.539Z,62.28
2017-02-08T09:56:03.556Z,62.56
2017-02-08T09:57:03.562Z,62.85
2017-02-08T09:58:03.573Z,62.37
2017-02-08T09:59:03.591Z,62.85
2017-02-08T10:00:03.599Z,62.94
2017-02-08T10:01:03.613Z,62.85
2017-02-08T10:02:03.625Z,62.94
2017-02-08T10:03:03.628Z,63.51
2017-02-08T10:04:03.246Z,63.13
2017-02-08T10:05:03.649Z,63.32
2017-02-08T10:06:03.660Z,63.13
2017-02-08T10:07:03.719Z,63.51
2017-02-08T10:08:03.705Z,63.6
2017-02-08T10:09:03.690Z,63.51
2017-02-08T10:10:03.323Z,63.42
2017-02-08T10:11:03.712Z,63.42
2017-02-08T10:12:03.360Z,63.23
2017-02-08T10:13:03.734Z,62.78
2017-02-08T10:14:03.741Z,62.37
2017-02-08T10:15:03.754Z,62.78
2017-02-08T10:16:03.775Z,62.4
2017-02-08T10:17:03.780Z,62.4
2017-02-08T10:18:03.397Z,62.37
2017-02-08T10:19:03.800Z,62.66
2017-02-08T10:20:03.826Z,62.75
2017-02-08T10:21:03.823Z,62.85
2017-02-08T10:22:03.834Z,62.94
2017-02-08T10:23:03.842Z,62.59
2017-02-08T10:24:03.473Z,62.12
2017-02-08T10:25:03.866Z,62.4
2017-02-08T10:26:03.488Z,62.02
2017-02-08T10:27:03.885Z,62.5
2017-02-08T10:28:03.897Z,62.18
2017-02-08T10:29:03.908Z,62.21
2017-02-08T10:30:03.917Z,61.9
2017-02-08T10:31:03.930Z,61.71
2017-02-08T10:32:03.960Z,61.61
2017-02-08T10:33:03.951Z,62.21
2017-02-08T10:34:03.962Z,62.12
2017-02-08T10:35:03.970Z,62.21
2017-02-08T10:36:04.025Z,61.83
2017-02-08T10:37:03.996Z,62.21
2017-02-08T10:38:04.005Z,62.4
2017-02-08T10:39:04.016Z,62.4
2017-02-08T10:40:03.634Z,62.31
2017-02-08T10:41:04.038Z,62.31
2017-02-08T10:42:04.049Z,62.02
2017-02-08T10:43:04.059Z,62.21
2017-02-08T10:44:04.069Z,62.02
2017-02-08T10:45:04.079Z,62.12
2017-02-08T10:46:04.091Z,62.4
2017-02-08T10:47:04.219Z,62.02
2017-02-08T10:48:04.115Z,62.12
2017-02-08T10:49:04.125Z,62.31
2017-02-08T10:50:04.147Z,62.21
2017-02-08T10:51:04.259Z,62.4
2017-02-08T10:52:04.270Z,62.21
2017-02-08T10:53:04.277Z,62.12
2017-02-08T10:54:04.285Z,62.21
2017-02-08T10:55:04.285Z,62.31
2017-02-08T10:56:04.201Z,61.65
2017-02-08T10:57:04.221Z,61.83
2017-02-08T10:58:04.222Z,61.83
2017-02-08T10:59:04.235Z,61.55
2017-02-08T11:00:04.250Z,62.12
2017-02-08T11:01:04.258Z,61.83
2017-02-08T11:02:04.267Z,62.21
2017-02-08T11:03:04.279Z,62.5
2017-02-08T11:04:04.290Z,62.31
2017-02-08T11:05:04.300Z,62.5
2017-02-08T11:06:04.312Z,61.55
2017-02-08T11:07:03.925Z,61.46
2017-02-08T11:08:04.338Z,61.65
2017-02-08T11:09:04.343Z,61.83
2017-02-08T11:10:04.358Z,61.93
2017-02-08T11:11:04.368Z,62.02
2017-02-08T11:12:04.433Z,61.83
2017-02-08T11:13:04.393Z,61.17
2017-02-08T11:14:04.400Z,61.17
2017-02-08T11:15:04.416Z,61.27
2017-02-08T11:16:04.448Z,61.08
2017-02-08T11:17:04.036Z,61.17
2017-02-08T11:18:04.444Z,61.08
2017-02-08T11:19:04.460Z,61.55
2017-02-08T11:20:04.466Z,60.89
2017-02-08T11:21:04.480Z,61.36
2017-02-08T11:22:04.491Z,61.36
2017-02-08T11:23:04.100Z,61.27
2017-02-08T11:24:04.512Z,61.08
2017-02-08T11:25:04.523Z,61.27
2017-02-08T11:26:04.535Z,61.55
2017-02-08T11:27:04.143Z,61.36
2017-02-08T11:28:04.565Z,61.46
2017-02-08T11:29:04.569Z,61.27
2017-02-08T11:30:04.579Z,61.74
2017-02-08T11:31:04.594Z,61.74
2017-02-08T11:32:04.702Z,61.46
2017-02-08T11:33:04.613Z,61.74
2017-02-08T11:34:04.622Z,62.31
2017-02-08T11:35:04.635Z,62.21
2017-02-08T11:36:04.645Z,62.21
2017-02-08T11:37:04.656Z,62.02
2017-02-08T11:38:04.665Z,62.21
2017-02-08T11:39:04.282Z,61.74
2017-02-08T11:40:04.696Z,61.55
2017-02-08T11:41:04.705Z,61.36
2017-02-08T11:42:04.720Z,61.46
2017-02-08T11:43:04.327Z,61.36
2017-02-08T11:44:04.733Z,61.27
2017-02-08T11:45:04.743Z,61.55
2017-02-08T11:46:04.767Z,61.46
2017-02-08T11:47:04.773Z,61.46
2017-02-08T11:48:04.780Z,61.17
2017-02-08T11:49:04.790Z,61.36
2017-02-08T11:50:04.799Z,61.83
2017-02-08T11:51:04.817Z,61.93
2017-02-08T11:52:04.826Z,61.46
2017-02-08T11:53:04.438Z,61.74
2017-02-08T11:54:04.840Z,61.74
2017-02-08T11:55:04.857Z,61.83
2017-02-08T11:56:04.869Z,61.83
2017-02-08T11:57:05.067Z,61.93
2017-02-08T11:58:04.889Z,62.12
2017-02-08T11:59:04.901Z,62.02
2017-02-08T12:00:05.023Z,61.74
2017-02-08T12:01:05.041Z,61.74
2017-02-08T12:02:05.025Z,62.02
2017-02-08T12:03:05.034Z,62.21
2017-02-08T12:04:04.957Z,62.21
2017-02-08T12:05:04.967Z,62.31
2017-02-08T12:06:05.050Z,62.31
2017-02-08T12:07:05.063Z,62.69
2017-02-08T12:08:05.069Z,63.45
2017-02-08T12:09:05.079Z,62.78
2017-02-08T12:10:05.085Z,63.54
2017-02-08T12:11:05.093Z,63.82
2017-02-08T12:12:05.092Z,64.01
2017-02-08T12:13:04.659Z,63.73
2017-02-08T12:14:05.170Z,63.17
2017-02-08T12:15:05.181Z,63.17
2017-02-08T12:16:05.180Z,63.45
2017-02-08T12:17:05.188Z,62.78
2017-02-08T12:18:05.198Z,62.78
2017-02-08T12:19:05.203Z,62.78
2017-02-08T12:20:05.214Z,62.59
2017-02-08T12:21:05.212Z,62.31
2017-02-08T12:22:05.374Z,62.5
2017-02-08T12:23:05.229Z,62.59
2017-02-08T12:24:05.238Z,62.78
2017-02-08T12:25:05.260Z,63.07
2017-02-08T12:26:05.284Z,63.07
2017-02-08T12:27:05.528Z,63.35
2017-02-08T12:28:05.285Z,62.4
2017-02-08T12:29:05.353Z,63.07
2017-02-08T12:30:05.358Z,62.97
2017-02-08T12:31:05.379Z,62.69
2017-02-08T12:32:05.362Z,62.31
2017-02-08T12:33:05.120Z,62.69
2017-02-08T12:34:05.386Z,62.5
2017-02-08T12:35:05.394Z,62.78
2017-02-08T12:36:05.400Z,63.17
2017-02-08T12:37:05.513Z,62.97
2017-02-08T12:38:05.511Z,63.35
2017-02-08T12:39:05.519Z,63.45
2017-02-08T12:40:05.516Z,63.54
2017-02-08T12:41:05.527Z,63.45
2017-02-08T12:42:05.667Z,63.17
2017-02-08T12:43:05.597Z,63.45
2017-02-08T12:44:05.502Z,63.54
2017-02-08T12:45:05.512Z,63.64
2017-02-08T12:46:05.520Z,63.45
2017-02-08T12:47:05.712Z,62.97
2017-02-08T12:48:05.570Z,63.17
2017-02-08T12:49:05.670Z,62.97
2017-02-08T12:50:05.679Z,62.59
2017-02-08T12:51:05.687Z,62.78
2017-02-08T12:52:05.703Z,62.5
2017-02-08T12:53:05.703Z,62.5
2017-02-08T12:54:05.705Z,62.31
2017-02-08T12:55:05.712Z,62.12
2017-02-08T12:56:05.623Z,62.31